• Join FlightAware (Why Join?)
  • Login
  • US Flag 
11:04AM EDT


 

Airport Tracker/Info


-or-


 

Live Flight TrackerFlight Track Log ✈ ACA854 ✈ 07-Sep-2013 ✈ CYVR - EGLL / LHR

Flight Track Log - Related Links

Times and Time Zones

All times are in EDT time to prevent confusion due to time zone crossing. See the ACA854 flight status page for this flight to view local times or setup timezone preferences in your user account.

Time Position Orientation Groundspeed Altitude Reporting Facility
EDT Latitude Longitude Course Direction KTS MPH feet Rate Location/Type
10:00PM 49.1850 -123.1660 143° Southeast 72 83  Level FlightAware
10:00PM 49.1870 -123.1790 283° West 135 155 300 Level FlightAware
10:00PM 49.1900 -123.2070 279° West 189 217 200 1,500 Climbing FlightAware
10:01PM 49.1920 -123.2280 278° West 193 222 900 2,580 Climbing FlightAware
10:01PM 49.1970 -123.2680 281° West 193 222 2,200 2,400 Climbing FlightAware
10:01PM 49.1990 -123.2880 279° West 197 227 2,700 1,860 Climbing FlightAware
10:02PM 49.2030 -123.3220 280° West 208 239 3,400 1,320 Climbing FlightAware
10:02PM 49.2100 -123.3520 290° West 238 274 3,700 840 Climbing FlightAware
10:02PM 49.2150 -123.3620 307° West 248 285 3,800 1,080 Climbing FlightAware
10:02PM 49.2230 -123.3710 324° Northwest 253 291 4,000 1,980 Climbing FlightAware
10:03PM 49.2280 -123.3750 332° Northwest 258 297 4,200 2,400 Climbing FlightAware
10:03PM 49.2350 -123.3780 344° North 261 300 4,400 1,860 Climbing FlightAware
10:03PM 49.2460 -123.3800 353° North 265 305 4,700 2,400 Climbing FlightAware
10:03PM 49.2610 -123.3820 355° North 268 308 5,300 2,760 Climbing FlightAware
10:03PM 49.2860 -123.3830 359° North 271 312 6,200 2,580 Climbing FlightAware
10:04PM 49.3020 -123.3830 360° North 274 315 6,700 2,580 Climbing FlightAware
10:04PM 49.3310 -123.3710 15° North 275 316 7,800 2,400 Climbing FlightAware
10:04PM 49.3460 -123.3530 38° Northeast 281 323 8,300 2,880 Climbing FlightAware
10:05PM 49.3640 -123.3250 45° Northeast 271 312 9,500 2,400 Climbing FlightAware
10:05PM 49.3960 -123.2770 44° Northeast 294 338 10,500 1,680 Climbing FlightAware
10:06PM 49.4360 -123.2160 45° Northeast 327 376 11,600 1,680 Climbing FlightAware
10:06PM 49.4750 -123.1580 44° Northeast 355 409 12,600 2,040 Climbing FlightAware
10:07PM 49.5180 -123.0930 44° Northeast 369 425 14,000 2,280 Climbing FlightAware
10:08PM 49.5580 -123.0230 49° Northeast 386 444 15,300 2,220 Climbing FlightAware
10:08PM 49.6020 -122.9510 47° Northeast 396 456 16,600 2,220 Climbing FlightAware
10:09PM 49.6460 -122.8790 47° Northeast 406 467 17,900 2,400 Climbing FlightAware
10:09PM 49.6900 -122.8030 48° Northeast 410 472 19,400 2,520 Climbing FlightAware
10:10PM 49.7340 -122.7270 48° Northeast 412 474 20,900 2,280 Climbing FlightAware
10:10PM 49.7790 -122.6510 47° Northeast 419 482 22,100 1,980 Climbing FlightAware
10:11PM 49.8370 -122.5540 47° Northeast 424 488 23,600 1,860 Climbing FlightAware
10:12PM 49.8870 -122.4680 48° Northeast 432 497 24,700 1,800 Climbing FlightAware
10:12PM 49.9340 -122.3900 47° Northeast 437 503 25,800 1,740 Climbing FlightAware
10:13PM 49.9820 -122.3070 48° Northeast 442 509 26,800 1,620 Climbing FlightAware
10:14PM 50.0260 -122.2310 48° Northeast 446 513 27,700 1,620 Climbing FlightAware
10:14PM 50.0800 -122.1430 46° Northeast 449 517 28,700 1,560 Climbing FlightAware
10:15PM 50.1350 -122.0640 43° Northeast 453 521 29,600 1,740 Climbing FlightAware
10:15PM 50.1920 -121.9840 42° Northeast 449 517 30,800 1,860 Climbing FlightAware
10:16PM 50.2420 -121.9160 41° Northeast 442 509 31,800 1,740 Climbing FlightAware
10:16PM 50.2970 -121.8410 41° Northeast 439 505 32,800 960 Climbing FlightAware
10:17PM 50.3530 -121.7630 42° Northeast 436 502 33,000 120 Climbing FlightAware
10:18PM 50.4020 -121.6960 41° Northeast 437 503 33,000  Level FlightAware
10:18PM 50.4570 -121.6200 41° Northeast 439 505 33,000  Level FlightAware
10:19PM 50.5110 -121.5440 42° Northeast 439 505 33,000  Level FlightAware
10:19PM 50.5640 -121.4680 42° Northeast 439 505 33,000  Level FlightAware
10:20PM 50.6130 -121.4000 41° Northeast 438 504 33,000  Level FlightAware
10:21PM 50.6680 -121.3220 42° Northeast 437 503 33,000  Level FlightAware
10:21PM 50.7220 -121.2460 42° Northeast 438 504 33,000  Level FlightAware
10:22PM 50.7760 -121.1680 42° Northeast 443 510 33,000  Level FlightAware
10:22PM 50.8220 -121.1020 42° Northeast 443 510 33,000  Level FlightAware
10:23PM 50.8790 -121.0210 42° Northeast 443 510 33,000  Level FlightAware
10:24PM 50.9350 -120.9410 42° Northeast 444 511 33,000  Level FlightAware
10:24PM 50.9880 -120.8630 43° Northeast 445 512 33,000  Level FlightAware
10:25PM 51.0380 -120.7920 42° Northeast 448 516 33,000  Level FlightAware
10:25PM 51.0910 -120.7140 43° Northeast 446 513 33,000  Level FlightAware
10:26PM 51.1470 -120.6340 42° Northeast 446 513 33,000  Level FlightAware
10:26PM 51.1960 -120.5620 43° Northeast 446 513 33,000  Level FlightAware
10:27PM 51.2500 -120.4820 43° Northeast 445 512 33,000  Level FlightAware
10:28PM 51.3040 -120.4020 43° Northeast 447 514 33,000  Level FlightAware
10:28PM 51.3600 -120.3200 42° Northeast 448 516 33,000  Level FlightAware
10:29PM 51.4070 -120.2500 43° Northeast 448 516 33,000  Level FlightAware
10:29PM 51.4640 -120.1660 43° Northeast 450 518 33,000  Level FlightAware
10:30PM 51.5180 -120.0860 43° Northeast 452 520 33,000  Level FlightAware
10:31PM 51.5740 -120.0020 43° Northeast 453 521 33,000  Level FlightAware
10:31PM 51.6220 -119.9300 43° Northeast 453 521 33,000  Level FlightAware
10:32PM 51.6780 -119.8460 43° Northeast 453 521 33,000  Level FlightAware
10:32PM 51.7310 -119.7640 44° Northeast 452 520 33,000  Level FlightAware
10:33PM 51.7870 -119.6810 43° Northeast 452 520 33,000  Level FlightAware
10:34PM 51.8540 -119.5790 43° Northeast 452 520 33,000  Level FlightAware
10:34PM 51.9010 -119.5080 43° Northeast 452 520 33,000  Level FlightAware
10:35PM 51.9480 -119.4370 43° Northeast 452 520 33,000  Level FlightAware
10:35PM 51.9940 -119.3660 44° Northeast 452 520 33,000  Level FlightAware
10:36PM 52.0410 -119.2950 43° Northeast 452 520 33,000  Level FlightAware
10:37PM 52.0880 -119.2240 43° Northeast 452 520 33,000  Level FlightAware
10:37PM 52.1350 -119.1530 43° Northeast 452 520 33,000  Level FlightAware
10:38PM 52.1810 -119.0820 43° Northeast 452 520 33,000  Level FlightAware
10:38PM 52.2300 -119.0090 42° Northeast 452 520 33,000  Level FlightAware
10:39PM 52.3590 -118.7960 45° Northeast 453 521 33,000  Level FlightAware
10:40PM 52.4280 -118.6860 44° Northeast 451 519 33,000  Level FlightAware
10:41PM 52.4890 -118.5880 44° Northeast 455 524 33,000  Level FlightAware
10:41PM 52.5350 -118.5160 44° Northeast 454 522 33,000  Level FlightAware
10:42PM 52.5880 -118.4320 44° Northeast 453 521 33,000  Level FlightAware
10:42PM 52.6470 -118.3370 44° Northeast 452 520 33,000  Level FlightAware
10:43PM 52.7000 -118.2520 44° Northeast 453 521 33,000  Level FlightAware
10:43PM 52.7440 -118.1800 45° Northeast 452 520 33,000  Level FlightAware
10:44PM 52.7960 -118.0960 44° Northeast 454 522 33,000  Level FlightAware
10:45PM 52.8550 -118.0000 44° Northeast 454 522 33,000  Level FlightAware
10:45PM 52.9090 -117.9120 44° Northeast 455 524 33,000  Level FlightAware
10:46PM 52.9530 -117.8400 45° Northeast 454 522 33,000  Level FlightAware
10:46PM 53.0130 -117.7420 44° Northeast 452 520 33,000  Level FlightAware
10:47PM 53.0650 -117.6550 45° Northeast 454 522 33,000  Level FlightAware
10:47PM 53.1090 -117.5820 45° Northeast 453 521 33,000  Level FlightAware
10:48PM 53.1610 -117.4960 45° Northeast 454 522 33,000  Level FlightAware
10:49PM 53.2200 -117.3970 45° Northeast 454 522 33,000  Level FlightAware
10:49PM 53.2640 -117.3240 45° Northeast 455 524 33,000  Level FlightAware
10:50PM 53.3230 -117.2250 45° Northeast 456 525 33,000  Level FlightAware
10:50PM 53.3750 -117.1370 45° Northeast 456 525 33,000  Level FlightAware
10:51PM 53.4190 -117.0620 45° Northeast 455 524 33,000  Level FlightAware
10:52PM 53.4710 -116.9730 46° Northeast 454 522 33,000  Level FlightAware
10:52PM 53.5300 -116.8730 45° Northeast 447 514 33,000  Level FlightAware
10:53PM 53.5820 -116.7850 45° Northeast 449 517 33,000  Level FlightAware
10:53PM 53.6250 -116.7110 46° Northeast 449 517 33,000  Level FlightAware
10:54PM 53.6840 -116.6090 46° Northeast 450 518 33,000  Level FlightAware
10:54PM 53.7280 -116.5320 46° Northeast 450 518 33,000  Level FlightAware
10:55PM 53.7790 -116.4430 46° Northeast 451 519 33,000  Level FlightAware
10:56PM 53.8380 -116.3400 46° Northeast 452 520 33,000  Level FlightAware
10:56PM 53.8900 -116.2490 46° Northeast 451 519 33,000  Level FlightAware
10:57PM 53.9480 -116.1480 46° Northeast 459 528 33,000  Level FlightAware
10:58PM 53.9990 -116.0580 46° Northeast 453 521 33,000  Level FlightAware
10:58PM 54.0500 -115.9670 46° Northeast 452 520 33,000  Level FlightAware
10:59PM 54.1020 -115.8750 46° Northeast 453 521 33,000  Level FlightAware
10:59PM 54.1530 -115.7840 46° Northeast 450 518 33,000  Level FlightAware
11:00PM 54.2050 -115.6950 45° Northeast 456 525 33,000  Level FlightAware
11:00PM 54.2570 -115.6070 45° Northeast 457 526 33,000  Level FlightAware
11:01PM 54.3030 -115.5290 45° Northeast 456 525 33,000  Level FlightAware
11:02PM 54.3540 -115.4420 45° Northeast 454 522 33,000  Level FlightAware
11:02PM 54.3990 -115.3640 45° Northeast 454 522 33,000  Level FlightAware
11:03PM 54.4580 -115.2620 45° Northeast 454 522 33,000  Level FlightAware
11:03PM 54.5020 -115.1860 45° Northeast 454 522 33,000  Level FlightAware
11:04PM 54.5540 -115.0950 45° Northeast 454 522 33,000  Level FlightAware
11:04PM 54.6050 -115.0050 46° Northeast 455 524 33,000  Level FlightAware
11:05PM 54.6640 -114.9020 45° Northeast 455 524 33,000  Level FlightAware
11:06PM 54.7160 -114.8110 45° Northeast 456 525 33,000  Level FlightAware
11:06PM 54.7600 -114.7320 46° Northeast 458 527 33,000  Level FlightAware
11:07PM 54.8130 -114.6380 46° Northeast 460 529 33,000  Level FlightAware
11:07PM 54.8730 -114.5320 45° Northeast 459 528 33,000  Level FlightAware
11:08PM 54.9150 -114.4560 46° Northeast 458 527 33,000  Level FlightAware
11:08PM 54.9660 -114.3640 46° Northeast 451 519 33,000  Level FlightAware
11:09PM 55.0240 -114.2600 46° Northeast 453 521 33,000  Level FlightAware
11:10PM 55.0770 -114.1640 46° Northeast 460 529 33,000  Level FlightAware
11:10PM 55.1350 -114.0570 46° Northeast 461 531 33,000  Level FlightAware
11:11PM 55.1830 -113.9700 46° Northeast 463 533 33,000  Level FlightAware
11:12PM 55.2360 -113.8720 46° Northeast 465 535 33,000  Level FlightAware
11:12PM 55.2900 -113.7730 46° Northeast 467 537 33,000  Level FlightAware
11:13PM 55.3450 -113.6720 46° Northeast 469 540 33,000  Level FlightAware
11:13PM 55.3960 -113.5760 47° Northeast 471 542 33,000  Level FlightAware
11:14PM 55.4390 -113.4970 46° Northeast 471 542 33,000  Level FlightAware
11:14PM 55.4870 -113.4060 47° Northeast 472 543 33,000  Level FlightAware
11:15PM 55.5500 -113.2880 47° Northeast 472 543 33,000  Level FlightAware
11:16PM 55.6100 -113.1750 47° Northeast 474 545 33,000  Level FlightAware
11:16PM 55.6650 -113.0690 47° Northeast 478 550 33,000  Level FlightAware
11:17PM 55.7180 -112.9690 47° Northeast 479 551 33,000  Level FlightAware
11:17PM 55.7700 -112.8690 47° Northeast 479 551 33,000  Level FlightAware
11:18PM 55.8230 -112.7670 47° Northeast 479 551 33,000  Level FlightAware
11:19PM 55.8730 -112.6710 47° Northeast 479 551 33,000  Level FlightAware
11:19PM 55.9190 -112.5830 47° Northeast 479 551 33,000  Level FlightAware
11:20PM 55.9660 -112.4940 47° Northeast 479 551 33,000  Level FlightAware
11:21PM 56.0130 -112.4030 47° Northeast 479 551 33,000  Level FlightAware
11:21PM 56.0590 -112.3140 47° Northeast 479 551 33,000  Level FlightAware
11:22PM 56.1060 -112.2250 47° Northeast 479 551 33,000  Level FlightAware
11:22PM 56.1520 -112.1360 47° Northeast 479 551 33,000  Level FlightAware
11:23PM 56.1990 -112.0450 47° Northeast 479 551 33,000  Level FlightAware
11:24PM 56.2460 -111.9560 46° Northeast 479 551 33,000  Level FlightAware
11:24PM 56.2920 -111.8660 47° Northeast 479 551 33,000  Level FlightAware
11:25PM 56.3380 -111.7770 47° Northeast 479 551 33,000  Level FlightAware
11:25PM 56.3840 -111.6870 47° Northeast 479 551 33,000  Level FlightAware
11:26PM 56.4300 -111.5980 47° Northeast 479 551 33,000  Level FlightAware
11:27PM 56.4770 -111.5080 47° Northeast 479 551 33,000  Level FlightAware
11:27PM 56.5230 -111.4180 47° Northeast 479 551 33,000  Level FlightAware
11:28PM 56.5690 -111.3280 47° Northeast 479 551 33,000  Level FlightAware
11:28PM 56.7167 -110.9000 47° Northeast 480 552 33,000  Level Edmonton Center
11:29PM 56.7833 -110.7167 56° Northeast 470 541 33,000  Level Edmonton Center
11:30PM 56.8667 -110.4833 57° Northeast 470 541 33,000  Level Edmonton Center
11:31PM 56.9500 -110.3167 47° Northeast 470 541 33,000  Level Edmonton Center
11:32PM 57.0167 -110.1000 60° Northeast 470 541 33,000  Level Edmonton Center
11:33PM 57.1000 -109.9000 52° Northeast 470 541 33,000  Level Edmonton Center
11:34PM 57.1667 -109.6833 60° Northeast 470 541 33,000  Level Edmonton Center
11:35PM 57.2333 -109.4833 58° Northeast 480 552 33,000  Level Edmonton Center
11:36PM 57.3000 -109.2667 60° Northeast 480 552 33,000  Level Edmonton Center
11:37PM 57.3833 -109.0500 54° Northeast 480 552 33,000  Level Edmonton Center
11:38PM 57.4500 -108.8333 60° Northeast 480 552 33,000  Level Edmonton Center
11:39PM 57.5333 -108.6333 52° Northeast 480 552 33,000  Level Edmonton Center
11:40PM 57.6000 -108.4167 60° Northeast 480 552 33,000  Level Edmonton Center
11:41PM 57.6833 -108.2000 54° Northeast 480 552 33,000  Level Edmonton Center
11:42PM 57.7500 -107.9833 60° Northeast 480 552 33,000  Level Edmonton Center
11:43PM 57.8167 -107.7667 60° Northeast 480 552 33,000  Level Edmonton Center
11:44PM 57.9000 -107.5500 54° Northeast 480 552 33,000  Level Edmonton Center
11:45PM 57.9500 -107.3333 66° East 480 552 33,000  Level Edmonton Center
11:46PM 58.0167 -107.1000 62° Northeast 490 564 33,000  Level Edmonton Center
11:47PM 58.1000 -106.8833 54° Northeast 490 564 33,000  Level Edmonton Center
11:48PM 58.1667 -106.6667 60° Northeast 490 564 33,000  Level Edmonton Center
11:49PM 58.2333 -106.4500 60° Northeast 490 564 33,000  Level Edmonton Center
11:50PM 58.3000 -106.2167 61° Northeast 490 564 33,000  Level Edmonton Center
11:51PM 58.4000 -105.9667 53° Northeast 490 564 33,000  Level Edmonton Center
11:52PM 58.4667 -105.7333 61° Northeast 490 564 33,000  Level Edmonton Center
11:53PM 58.5333 -105.5167 59° Northeast 500 575 33,000  Level Edmonton Center
11:54PM 58.6000 -105.2833 61° Northeast 500 575 33,000  Level Edmonton Center
11:55PM 58.6667 -105.0500 61° Northeast 500 575 33,000  Level Edmonton Center
11:56PM 58.7333 -104.8000 63° Northeast 500 575 33,000  Level Edmonton Center
11:57PM 58.8000 -104.5667 61° Northeast 500 575 33,000  Level Edmonton Center
11:58PM 58.8667 -104.3333 61° Northeast 500 575 33,000  Level Edmonton Center
11:59PM 58.9333 -104.1000 61° Northeast 510 587 33,000  Level Edmonton Center
12:00AM 59.0000 -103.8333 64° Northeast 500 575 33,000  Level Edmonton Center
12:01AM 59.0667 -103.5667 64° Northeast 500 575 33,000  Level Edmonton Center
12:02AM 59.1500 -103.3333 55° Northeast 500 575 33,000  Level Edmonton Center
12:03AM 59.2167 -103.1000 61° Northeast 500 575 33,000  Level Edmonton Center
12:04AM 59.2833 -102.8667 61° Northeast 500 575 33,000  Level Edmonton Center
12:05AM 59.3500 -102.6000 64° Northeast 500 575 33,000  Level Edmonton Center
12:06AM 59.4000 -102.3500 68° East 510 587 33,000  Level Edmonton Center
12:07AM 59.4667 -102.1167 61° Northeast 500 575 33,000  Level Edmonton Center
12:08AM 59.5333 -101.8833 61° Northeast 500 575 33,000  Level Edmonton Center
12:09AM 59.6000 -101.6000 65° Northeast 510 587 33,000  Level Edmonton Center
12:10AM 59.6500 -101.3667 67° East 500 575 33,000  Level Edmonton Center
12:11AM 59.7167 -101.0833 65° Northeast 510 587 33,000  Level Edmonton Center
12:12AM 59.7833 -100.8333 62° Northeast 510 587 33,000  Level Edmonton Center
12:13AM 59.8500 -100.6000 60° Northeast 510 587 33,000  Level Edmonton Center
12:14AM 59.9167 -100.3167 65° Northeast 510 587 33,000  Level Edmonton Center
12:15AM 59.9667 -100.0667 68° East 510 587 33,000  Level Edmonton Center
12:16AM 60.0333 -99.7833 65° Northeast 510 587 33,000  Level Edmonton Center
12:17AM 60.0833 -99.5167 69° East 510 587 33,000  Level Edmonton Center
12:18AM 60.1167 -99.2667 75° East 510 587 33,000  Level Edmonton Center
12:19AM 60.1833 -98.9833 65° Northeast 510 587 33,000  Level Edmonton Center
12:20AM 60.2333 -98.7000 70° East 510 587 33,000  Level Edmonton Center
12:21AM 60.2667 -98.4500 75° East 510 587 33,000  Level Edmonton Center
12:22AM 60.3333 -98.1667 64° Northeast 510 587 33,000  Level Edmonton Center
12:23AM 60.3833 -97.8667 71° East 510 587 33,000  Level Edmonton Center
12:24AM 60.4333 -97.6167 68° East 510 587 33,000  Level Edmonton Center
12:25AM 60.4667 -97.3333 76° East 510 587 33,000  Level Edmonton Center
12:26AM 60.5167 -97.0500 70° East 510 587 33,000  Level Edmonton Center
12:27AM 60.5667 -96.7833 69° East 510 587 33,000  Level Edmonton Center
12:28AM 60.6000 -96.5000 76° East 510 587 33,000  Level Edmonton Center
12:29AM 60.6500 -96.2167 70° East 510 587 33,000  Level Edmonton Center
12:30AM 60.7000 -95.9500 69° East 510 587 33,000  Level Edmonton Center
12:31AM 60.7333 -95.6667 76° East 510 587 33,000  Level Edmonton Center
12:32AM 60.7833 -95.3667 71° East 510 587 33,000  Level Edmonton Center
12:33AM 60.8333 -95.1000 69° East 510 587 33,000  Level Edmonton Center
12:34AM 60.8667 -94.8167 76° East 510 587 33,000  Level Edmonton Center
12:35AM 60.9167 -94.5167 71° East 520 598 33,000  Level Edmonton Center
12:36AM 60.9667 -94.2500 69° East 510 587 33,000  Level Edmonton Center
12:37AM 61.0000 -93.9167 78° East 510 587 33,000  Level Edmonton Center
12:38AM 61.0333 -93.6667 75° East 510 587 33,000  Level Edmonton Center
12:39AM 61.0833 -93.4000 69° East 510 587 33,000  Level Edmonton Center
12:40AM 61.1167 -93.1000 77° East 510 587 33,000  Level Edmonton Center
12:41AM 61.1500 -92.8333 75° East 510 587 33,000  Level Edmonton Center
12:42AM 61.1833 -92.5000 78° East 510 587 33,000  Level Edmonton Center
12:43AM 61.2333 -92.2000 71° East 510 587 33,000  Level Edmonton Center
12:44AM 61.2667 -91.9333 75° East 510 587 33,000  Level Edmonton Center
12:45AM 61.3000 -91.6667 75° East 510 587 33,000  Level Edmonton Center
12:46AM 61.3333 -91.3333 78° East 510 587 33,000  Level Edmonton Center
12:47AM 61.3667 -91.0500 76° East 510 587 33,000  Level Edmonton Center
12:48AM 61.4000 -90.7500 77° East 510 587 33,000  Level Edmonton Center
12:49AM 61.4333 -90.4833 75° East 510 587 33,000  Level Edmonton Center
12:50AM 61.4667 -90.1833 77° East 510 587 33,000  Level Edmonton Center
12:51AM 61.4833 -89.8833 83° East 510 587 33,000  Level Edmonton Center
12:52AM 61.5333 -89.6000 70° East 510 587 33,000  Level Edmonton Center
12:53AM 61.5667 -89.3000 77° East 510 587 33,000 60 Level Edmonton Center
12:54AM 61.6000 -89.0167 76° East 510 587 33,200 360 Climbing Edmonton Center
12:55AM 61.6333 -88.7167 77° East 510 587 33,800 600 Climbing Edmonton Center
12:56AM 61.6667 -88.4333 76° East 510 587 34,400 540 Climbing Edmonton Center
12:57AM 61.6833 -88.1333 83° East 510 587 34,900 300 Climbing Edmonton Center
12:58AM 61.7167 -87.8167 77° East 510 587 35,000  Climbing Edmonton Center
12:59AM 61.7500 -87.5333 76° East 520 598 35,000  Level Edmonton Center
01:00AM 61.7667 -87.2333 83° East 520 598 35,000  Level Edmonton Center
01:01AM 61.8000 -86.9167 77° East 520 598 35,000  Level Edmonton Center
01:02AM 61.8333 -86.6333 76° East 520 598 35,000  Level Edmonton Center
01:03AM 61.8500 -86.3667 82° East 510 587 35,000  Level Edmonton Center
01:04AM 61.8833 -86.0500 77° East 510 587 35,000  Level Edmonton Center
01:05AM 61.9000 -85.7667 83° East 500 575 35,000  Level Edmonton Center
01:06AM 61.9333 -85.4167 78° East 510 587 35,000  Level Edmonton Center
01:07AM 61.9500 -85.1333 83° East 500 575 35,000  Level Edmonton Center
01:08AM 61.9667 -84.8667 82° East 500 575 35,000  Level Edmonton Center
01:09AM 62.0167 -84.5333 72° East 510 587 35,000  Level Edmonton Center
01:10AM 62.0167 -84.2333 90° East 510 587 35,000  Level Edmonton Center
01:11AM 62.0500 -83.9500 76° East 500 575 35,000  Level Edmonton Center
01:12AM 62.0667 -83.6333 83° East 510 587 35,000  Level Edmonton Center
01:13AM 62.0833 -83.3500 83° East 510 587 35,000  Level Edmonton Center
01:14AM 62.1167 -83.0333 77° East 500 575 35,000  Level Edmonton Center
01:15AM 62.1167 -82.7500 90° East 500 575 35,000  Level Edmonton Center
01:16AM 62.1333 -82.4333 83° East 500 575 35,000  Level Edmonton Center
01:17AM 62.1500 -82.1500 83° East 500 575 35,000  Level Edmonton Center
01:18AM 62.1833 -81.8667 76° East 500 575 35,000  Level Edmonton Center
01:19AM 62.2000 -81.5333 84° East 500 575 35,000  Level Edmonton Center
01:20AM 62.2000 -81.2667 90° East 500 575 35,000  Level Edmonton Center
01:22AM 62.2500 -81.1000 57° Northeast 510 587 35,000  Level Montreal Center
01:23AM 62.2667 -80.7833 83° East 510 587 35,000  Level Montreal Center
01:24AM 62.3000 -80.5000 76° East 510 587 35,000  Level Montreal Center
01:25AM 62.3000 -80.2000 90° East 510 587 35,000  Level Montreal Center
01:26AM 62.3167 -79.9167 83° East 500 575 35,000  Level Montreal Center
01:27AM 62.3333 -79.6000 83° East 500 575 35,000  Level Montreal Center
01:28AM 62.3667 -79.3167 76° East 500 575 35,000  Level Montreal Center
01:29AM 62.4000 -79.0333 76° East 500 575 35,000  Level Montreal Center
01:30AM 62.4167 -78.7000 84° East 500 575 35,000  Level Montreal Center
01:31AM 62.4500 -78.4167 76° East 500 575 35,000  Level Montreal Center
01:32AM 62.4667 -78.1333 83° East 510 587 35,000  Level Montreal Center
01:33AM 62.4833 -77.8000 84° East 500 575 35,000  Level Montreal Center
01:34AM 62.5000 -77.5167 83° East 500 575 35,000  Level Montreal Center
01:35AM 62.5167 -77.2167 83° East 500 575 35,000  Level Montreal Center
01:36AM 62.5500 -76.9333 76° East 500 575 35,000  Level Montreal Center
01:37AM 62.5667 -76.6167 83° East 500 575 35,000  Level Montreal Center
01:38AM 62.5833 -76.3167 83° East 500 575 35,000  Level Montreal Center
01:39AM 62.6000 -76.0333 83° East 500 575 35,000  Level Montreal Center
01:40AM 62.6167 -75.7000 84° East 500 575 35,000  Level Montreal Center
01:41AM 62.6333 -75.4167 83° East 500 575 35,000  Level Montreal Center
01:42AM 62.6500 -75.1167 83° East 500 575 35,000  Level Montreal Center
01:43AM 62.6500 -74.8333 90° East 500 575 35,000  Level Montreal Center
01:44AM 62.6667 -74.5000 84° East 500 575 35,000  Level Montreal Center
01:45AM 62.6833 -74.2000 83° East 500 575 35,000  Level Montreal Center
01:46AM 62.7000 -73.9167 83° East 500 575 35,000  Level Montreal Center
01:47AM 62.7167 -73.5833 84° East 500 575 35,000  Level Montreal Center
01:48AM 62.7167 -73.2833 90° East 510 587 35,000  Level Montreal Center
01:49AM 62.7333 -72.9667 83° East 510 587 35,000  Level Montreal Center
01:50AM 62.7500 -72.6667 83° East 500 575 35,000  Level Montreal Center
01:51AM 62.7500 -72.3667 90° East 500 575 35,000  Level Montreal Center
01:52AM 62.7667 -72.0500 83° East 510 587 35,000  Level Montreal Center
01:53AM 62.7667 -71.7500 90° East 510 587 35,000  Level Montreal Center
01:54AM 62.7833 -71.4167 84° East 500 575 35,000  Level Montreal Center
01:55AM 62.7833 -71.1167 90° East 500 575 35,000  Level Montreal Center
01:56AM 62.7833 -70.8333 90° East 500 575 35,000  Level Montreal Center
01:57AM 62.8167 -70.5333 76° East 500 575 35,000  Level Montreal Center
01:58AM 62.8167 -70.2000 90° East 500 575 35,000  Level Montreal Center
01:59AM 62.8167 -69.9000 90° East 510 587 35,000  Level Montreal Center
02:00AM 62.8333 -69.6167 83° East 510 587 35,000  Level Montreal Center
02:01AM 62.8333 -69.2833 90° East 510 587 35,000  Level Montreal Center
02:02AM 62.8333 -68.9833 90° East 510 587 35,000  Level Montreal Center
02:03AM 62.8333 -68.6500 90° East 500 575 35,000  Level Montreal Center
02:04AM 62.8333 -68.3667 90° East 500 575 35,000  Level Montreal Center
02:05AM 62.8333 -68.0667 90° East 500 575 35,000  Level Montreal Center
02:06AM 62.8333 -67.7667 90° East 500 575 35,000  Level Montreal Center
02:07AM 62.8333 -67.4667 90° East 500 575 35,000  Level Montreal Center
02:08AM 62.8333 -67.1500 90° East 500 575 35,000  Level Montreal Center
02:09AM 62.8333 -66.8500 90° East 500 575 35,000  Level Montreal Center
02:10AM 62.8500 -66.5500 83° East 500 575 35,000  Level Montreal Center
02:11AM 62.8667 -66.2500 83° East 500 575 35,000  Level Montreal Center
02:12AM 62.8833 -65.9500 83° East 500 575 35,000  Level Montreal Center
02:13AM 62.9000 -65.6500 83° East 500 575 35,000  Level Montreal Center
02:14AM 62.9167 -65.3333 83° East 500 575 35,000  Level Montreal Center
02:15AM 62.9333 -65.0000 84° East 500 575 35,000  Level Montreal Center
02:16AM 62.9500 -64.7000 83° East 500 575 35,000  Level Montreal Center
02:17AM 62.9667 -64.4000 83° East 500 575 35,000  Level Montreal Center
02:18AM 62.9667 -64.1000 90° East 500 575 35,000  Level Montreal Center
02:19AM 62.9833 -63.7833 83° East 500 575 35,000  Level Montreal Center
02:20AM 62.9833 -63.4833 90° East 500 575 35,000  Level Montreal Center
02:21AM 63.0167 -63.1833 76° East 500 575 35,000  Level Montreal Center
02:22AM 63.0167 -62.8833 90° East 500 575 35,000  Level Montreal Center
02:23AM 63.0167 -62.5833 90° East 500 575 35,000  Level Montreal Center
02:24AM 63.0167 -62.2500 90° East 500 575 35,000  Level Montreal Center
02:25AM 63.0167 -61.9333 90° East 500 575 35,000  Level Montreal Center
02:26AM 63.0167 -61.6333 90° East 500 575 35,000  Level Montreal Center
02:27AM 63.0333 -61.3667 82° East 500 575 35,000  Level Montreal Center
02:28AM 63.0333 -61.0333 90° East 500 575 35,000  Level Montreal Center
02:29AM 63.0167 -60.8000 99° East 510 587 35,000  Level Gander Center
02:30AM 63.0167 -60.4500 90° East 510 587 35,000  Level Gander Center
02:31AM 63.0167 -60.1500 90° East 510 587 35,000  Level Gander Center
02:32AM 63.0167 -59.8167 90° East 510 587 35,000  Level Gander Center
02:33AM 63.0000 -59.5000 96° East 500 575 35,000  Level Montreal Center
02:34AM 62.9833 -59.1667 96° East 500 575 35,000  Level Montreal Center
02:35AM 62.9500 -58.9000 105° East 500 575 35,000  Level Montreal Center
02:36AM 62.9333 -58.6000 97° East 500 575 35,000  Level Montreal Center
02:37AM 62.9000 -58.2667 102° East 500 575 35,000  Level Montreal Center
02:38AM 62.8833 -57.9833 97° East 500 575 35,000  Level Montreal Center
02:39AM 62.8667 -57.6833 97° East 500 575 35,000  Level Montreal Center
02:40AM 62.8500 -57.4000 97° East 490 564 35,000  Level Montreal Center
02:41AM 62.8333 -57.1167 97° East 500 575 35,000  Level Montreal Center
02:42AM 62.7833 -56.8333 111° Southeast 490 564 35,000  Level Montreal Center
02:43AM 62.7667 -56.5833 98° East 490 564 35,000  Level Montreal Center
02:43AM 62.7500 -56.3167 98° East 500 575 35,000  Level Gander Center
02:50AM 62.5560 -54.5890 98° East 501 577 35,000  Level FlightAware
02:50AM 62.5420 -54.4490 102° East 502 578 35,000  Level FlightAware
02:51AM 62.5180 -54.2230 103° East 503 579 35,000  Level FlightAware
02:51AM 62.5000 -54.0500 103° East 505 581 35,000  Level FlightAware
02:52AM 62.4740 -53.8130 103° East 505 581 35,000  Level FlightAware
02:53AM 62.4550 -53.6420 103° East 504 580 35,000  Level FlightAware
02:53AM 62.4370 -53.4780 103° East 505 581 35,000  Level FlightAware
02:54AM 62.4120 -53.2540 103° East 504 580 35,000  Level FlightAware
02:55AM 62.3950 -53.0950 103° East 504 580 35,000  Level FlightAware
02:55AM 62.3790 -52.9450 103° East 504 580 35,000  Level FlightAware
02:56AM 62.3520 -52.7330 105° East 503 579 35,000  Level FlightAware
02:56AM 62.3350 -52.5850 104° East 503 579 35,000  Level FlightAware
02:57AM 62.3120 -52.3940 104° East 502 578 35,000  Level FlightAware
02:58AM 62.2900 -52.2120 104° East 503 579 35,000  Level FlightAware
02:58AM 62.2700 -52.0540 105° East 502 578 35,000  Level FlightAware
02:59AM 62.2490 -51.8780 104° East 502 578 35,000  Level FlightAware
02:59AM 62.2270 -51.7070 105° East 501 577 35,000  Level FlightAware
03:00AM 62.2070 -51.5480 105° East 501 577 35,000  Level FlightAware
03:01AM 62.1870 -51.3900 105° East 501 577 35,000  Level FlightAware
03:01AM 62.1660 -51.2270 105° East 501 577 35,000  Level FlightAware
03:02AM 62.1420 -51.0430 106° East 501 577 35,000  Level FlightAware
03:02AM 62.1200 -50.8820 106° East 501 577 35,000  Level FlightAware
03:03AM 62.0970 -50.7100 106° East 500 575 35,000  Level FlightAware
03:03AM 62.0760 -50.5540 106° East 498 573 35,000  Level FlightAware
03:04AM 62.0520 -50.3740 106° East 498 573 35,000  Level FlightAware
03:05AM 62.0330 -50.2290 106° East 498 573 35,000  Level FlightAware
03:06AM 61.9960 -49.9380 105° East 502 578 35,000  Level FlightAware
03:06AM 61.9800 -49.7910 103° East 502 578 35,000  Level FlightAware
03:07AM 61.9640 -49.6440 103° East 502 578 35,000  Level FlightAware
03:07AM 61.9480 -49.4960 103° East 502 578 35,000  Level FlightAware
03:08AM 61.9320 -49.3490 103° East 502 578 35,000  Level FlightAware
03:09AM 61.9160 -49.2020 103° East 502 578 35,000  Level FlightAware
03:09AM 61.8990 -49.0510 103° East 502 578 35,000  Level FlightAware
03:10AM 61.8830 -48.9040 103° East 502 578 35,000  Level FlightAware
03:11AM 61.8670 -48.7570 103° East 502 578 35,000  Level FlightAware
03:11AM 61.8510 -48.6100 103° East 502 578 35,000  Level FlightAware
03:12AM 61.8340 -48.4510 103° East 502 578 35,000  Level FlightAware
03:12AM 61.8170 -48.3010 103° East 502 578 35,000  Level FlightAware
03:13AM 61.8010 -48.1540 103° East 502 578 35,000  Level FlightAware
03:14AM 61.7850 -48.0080 103° East 502 578 35,000  Level FlightAware
03:14AM 61.7690 -47.8610 103° East 502 578 35,000  Level FlightAware
03:15AM 61.7530 -47.7150 103° East 502 578 35,000  Level FlightAware
03:15AM 61.8000 -46.9833 103° East 510 587 35,000  Level Gander Center
03:16AM 61.7667 -46.6833 103° East 510 587 35,000  Level Gander Center
03:17AM 61.7500 -46.4000 97° East 510 587 35,000  Level Gander Center
03:18AM 61.7333 -46.0833 96° East 510 587 35,000  Level Gander Center
03:19AM 61.7000 -45.8167 105° East 510 587 35,000  Level Gander Center
03:20AM 61.6667 -45.5167 103° East 510 587 35,000  Level Gander Center
03:21AM 61.6500 -45.2333 97° East 510 587 35,000  Level Gander Center
03:22AM 61.6167 -44.9333 103° East 510 587 35,000  Level Gander Center
03:23AM 61.5833 -44.6333 103° East 510 587 35,000  Level Gander Center
03:24AM 61.5667 -44.3500 97° East 510 587 35,000  Level Gander Center
03:25AM 61.5167 -44.0500 109° East 510 587 35,000  Level Gander Center
03:26AM 61.4833 -43.7833 105° East 510 587 35,000  Level Gander Center
03:27AM 61.4500 -43.4833 103° East 520 598 35,000  Level Gander Center
03:28AM 61.4333 -43.2000 97° East 510 587 35,000  Level Gander Center
03:29AM 61.4000 -42.9000 103° East 520 598 35,000  Level Gander Center
03:30AM 61.3500 -42.6167 110° East 520 598 35,000  Level Gander Center
03:31AM 61.3167 -42.3500 104° East 520 598 35,000  Level Gander Center
03:32AM 61.3000 -42.0333 96° East 520 598 35,000  Level Gander Center
03:33AM 61.2500 -41.7500 110° East 530 610 35,000  Level Gander Center
03:34AM 61.2167 -41.4500 103° East 520 598 35,000  Level Gander Center
03:35AM 61.1667 -41.1833 111° Southeast 530 610 35,000  Level Gander Center
03:36AM 61.1500 -40.8833 96° East 530 610 35,000  Level Gander Center
03:37AM 61.1000 -40.5833 109° East 530 610 35,000  Level Gander Center
03:38AM 61.0667 -40.3000 104° East 530 610 35,000  Level Gander Center
03:39AM 61.0167 -40.0000 109° East 530 610 35,000  Level Gander Center
03:40AM 60.9833 -39.7000 103° East 540 621 35,000  Level Gander Center
03:41AM 60.9667 -39.4333 97° East 540 621 35,000  Level Gander Center
03:42AM 60.9667 -39.1167 90° East 540 621 35,000  Level Gander Center
03:43AM 60.9333 -38.8167 103° East 540 621 35,000  Level Gander Center
03:44AM 60.9167 -38.5167 96° East 540 621 35,000  Level Gander Center
03:45AM 60.9000 -38.2000 96° East 540 621 35,000  Level Gander Center
03:46AM 60.8667 -37.9000 103° East 540 621 35,000  Level Gander Center
03:47AM 60.8333 -37.6000 103° East 540 621 35,000  Level Gander Center
03:48AM 60.8333 -37.3167 90° East 540 621 35,000  Level Gander Center
03:49AM 60.7833 -37.0167 109° East 540 621 35,000  Level Gander Center
03:50AM 60.7667 -36.7167 96° East 540 621 35,000  Level Gander Center
03:51AM 60.7500 -36.4167 96° East 540 621 35,000  Level Gander Center
03:52AM 60.7167 -36.1167 103° East 540 621 35,000  Level Gander Center
03:53AM 60.6833 -35.8167 103° East 540 621 35,000  Level Gander Center
03:54AM 60.6667 -35.5167 96° East 540 621 35,000  Level Gander Center
03:55AM 60.6333 -35.2500 104° East 540 621 35,000  Level Gander Center
03:56AM 60.6000 -34.9500 103° East 540 621 35,000  Level Gander Center
03:59AM 60.5718 -34.6731 102° East  Level FlightAware Approximate
04:06AM 60.3624 -32.7805 102° East  Level FlightAware Approximate
04:07AM 60.3303 -32.5122 103° East  Level FlightAware Approximate
04:08AM 60.2976 -32.2444 104° East  Level FlightAware Approximate
04:09AM 60.2644 -31.9771 104° East  Level FlightAware Approximate
04:10AM 60.2307 -31.7104 104° East  Level FlightAware Approximate
04:11AM 60.1965 -31.4442 104° East  Level FlightAware Approximate
04:12AM 60.1617 -31.1786 105° East  Level FlightAware Approximate
04:13AM 60.1264 -30.9135 105° East  Level FlightAware Approximate
04:14AM 60.0905 -30.6491 105° East  Level FlightAware Approximate
04:15AM 60.0542 -30.3852 105° East  Level FlightAware Approximate
04:16AM 60.0173 -30.1219 106° East  Level FlightAware Approximate
04:17AM 60.0051 -29.8540 86° East  Level FlightAware Approximate
04:18AM 60.0143 -29.5814 86° East  Level FlightAware Approximate
04:19AM 60.0228 -29.3086 86° East  Level FlightAware Approximate
04:20AM 60.0308 -29.0357 87° East  Level FlightAware Approximate
04:21AM 60.0383 -28.7626 87° East  Level FlightAware Approximate
04:22AM 60.0451 -28.4895 87° East  Level FlightAware Approximate
04:23AM 60.0514 -28.2162 87° East  Level FlightAware Approximate
04:24AM 60.0572 -27.9428 87° East  Level FlightAware Approximate
04:25AM 60.0624 -27.6693 88° East  Level FlightAware Approximate
04:26AM 60.0670 -27.3958 88° East  Level FlightAware Approximate
04:27AM 60.0711 -27.1222 88° East  Level FlightAware Approximate
04:28AM 60.0746 -26.8485 88° East  Level FlightAware Approximate
04:29AM 60.0775 -26.5747 89° East  Level FlightAware Approximate
04:30AM 60.0798 -26.3009 89° East  Level FlightAware Approximate
04:31AM 60.0816 -26.0271 89° East  Level FlightAware Approximate
04:32AM 60.0829 -25.7533 89° East  Level FlightAware Approximate
04:33AM 60.0835 -25.4794 90° East  Level FlightAware Approximate
04:34AM 60.0836 -25.2056 90° East  Level FlightAware Approximate
04:35AM 60.0835 -24.9317 90° East  Level FlightAware Approximate
04:36AM 60.0837 -24.6578 90° East  Level FlightAware Approximate
04:37AM 60.0833 -24.3840 90° East  Level FlightAware Approximate
04:38AM 60.0823 -24.1101 90° East  Level FlightAware Approximate
04:39AM 60.0808 -23.8363 91° East  Level FlightAware Approximate
04:40AM 60.0787 -23.5625 91° East  Level FlightAware Approximate
04:41AM 60.0761 -23.2887 91° East  Level FlightAware Approximate
04:42AM 60.0729 -23.0150 91° East  Level FlightAware Approximate
04:43AM 60.0691 -22.7413 91° East  Level FlightAware Approximate
04:44AM 60.0648 -22.4678 92° East  Level FlightAware Approximate
04:45AM 60.0599 -22.1942 92° East  Level FlightAware Approximate
04:46AM 60.0544 -21.9208 92° East  Level FlightAware Approximate
04:47AM 60.0484 -21.6475 92° East  Level FlightAware Approximate
04:48AM 60.0418 -21.3743 93° East  Level FlightAware Approximate
04:49AM 60.0346 -21.1011 93° East  Level FlightAware Approximate
04:50AM 60.0269 -20.8281 93° East  Level FlightAware Approximate
04:51AM 60.0186 -20.5553 93° East  Level FlightAware Approximate
04:52AM 60.0098 -20.2826 94° East  Level FlightAware Approximate
04:53AM 60.0004 -20.0100 94° East  Level FlightAware Approximate
04:54AM 59.9352 -19.7712 119° Southeast  Level FlightAware Approximate
04:55AM 59.8675 -19.5347 120° Southeast  Level FlightAware Approximate
04:56AM 59.7993 -19.2991 120° Southeast  Level FlightAware Approximate
04:57AM 59.7308 -19.0645 120° Southeast  Level FlightAware Approximate
04:58AM 59.6618 -18.8309 120° Southeast  Level FlightAware Approximate
04:59AM 59.5924 -18.5982 120° Southeast  Level FlightAware Approximate
05:00AM 59.5226 -18.3665 121° Southeast  Level FlightAware Approximate
05:01AM 59.4524 -18.1357 121° Southeast  Level FlightAware Approximate
05:02AM 59.3818 -17.9059 121° Southeast  Level FlightAware Approximate
05:03AM 59.3108 -17.6771 121° Southeast  Level FlightAware Approximate
05:04AM 59.2393 -17.4492 121° Southeast  Level FlightAware Approximate
05:05AM 59.1675 -17.2223 122° Southeast  Level FlightAware Approximate
05:06AM 59.0953 -16.9963 122° Southeast  Level FlightAware Approximate
05:07AM 59.0227 -16.7713 122° Southeast  Level FlightAware Approximate
05:08AM 58.9497 -16.5472 122° Southeast  Level FlightAware Approximate
05:09AM 58.8764 -16.3241 122° Southeast  Level FlightAware Approximate
05:10AM 58.8026 -16.1019 123° Southeast  Level FlightAware Approximate
05:11AM 58.7285 -15.8806 123° Southeast  Level FlightAware Approximate
05:12AM 58.6540 -15.6604 123° Southeast  Level FlightAware Approximate
05:13AM 58.5791 -15.4410 123° Southeast  Level FlightAware Approximate
05:14AM 58.5038 -15.2226 123° Southeast  Level FlightAware Approximate
05:15AM 58.4282 -15.0051 124° Southeast  Level FlightAware Approximate
05:16AM 58.3522 -14.7886 124° Southeast  Level FlightAware Approximate
05:17AM 58.2759 -14.5730 124° Southeast  Level FlightAware Approximate
05:18AM 58.1991 -14.3583 124° Southeast  Level FlightAware Approximate
05:19AM 58.1221 -14.1446 124° Southeast  Level FlightAware Approximate
05:20AM 58.0446 -13.9317 124° Southeast  Level FlightAware Approximate
05:21AM 57.9668 -13.7198 125° Southeast  Level FlightAware Approximate
05:22AM 57.8887 -13.5088 125° Southeast  Level FlightAware Approximate
05:23AM 57.8102 -13.2988 125° Southeast  Level FlightAware Approximate
05:24AM 57.7314 -13.0896 125° Southeast  Level FlightAware Approximate
05:25AM 57.6522 -12.8814 125° Southeast  Level FlightAware Approximate
05:26AM 57.5727 -12.6741 126° Southeast  Level FlightAware Approximate
05:27AM 57.4929 -12.4676 126° Southeast  Level FlightAware Approximate
05:28AM 57.4127 -12.2621 126° Southeast  Level FlightAware Approximate
05:29AM 57.3321 -12.0575 126° Southeast  Level FlightAware Approximate
05:30AM 57.2513 -11.8538 126° Southeast  Level FlightAware Approximate
05:30AM 55.6160 -12.2070 126° Southeast 546 628 36,000  Level FlightAware
05:31AM 57.1701 -11.6509 126° Southeast  Level FlightAware Approximate
05:31AM 55.5610 -12.1030 133° Southeast 547 629 36,000  Level FlightAware
05:31AM 55.4940 -11.9770 133° Southeast 549 632 36,000  Level FlightAware
05:32AM 55.4140 -11.8240 133° Southeast 549 632 36,000  Level FlightAware
05:33AM 55.3450 -11.6980 134° Southeast 561 646 36,000  Level FlightAware
05:33AM 55.2720 -11.5620 133° Southeast 565 650 36,000  Level FlightAware
05:34AM 55.2100 -11.4480 134° Southeast 565 650 36,000  Level FlightAware
05:35AM 55.1460 -11.3310 134° Southeast 561 646 36,000  Level FlightAware
05:35AM 55.0850 -11.2180 133° Southeast 563 648 36,000 -180 Level FlightAware
05:36AM 55.0190 -11.0990 134° Southeast 568 654 35,800 -480 Descending FlightAware
05:36AM 54.9560 -10.9840 134° Southeast 575 662 35,500 -480 Descending FlightAware
05:37AM 54.8900 -10.8660 134° Southeast 574 661 35,300 -300 Descending FlightAware
05:37AM 54.8340 -10.7650 134° Southeast 564 649 35,200 -300 Descending FlightAware
05:38AM 54.7630 -10.6360 134° Southeast 559 643 35,000 -180 Descending FlightAware
05:39AM 54.7050 -10.5170 130° Southeast 564 649 35,000  Level FlightAware
05:39AM 54.6480 -10.3930 128° Southeast 568 654 35,000  Level FlightAware
05:40AM 54.5920 -10.2710 128° Southeast 570 656 35,000  Level FlightAware
05:40AM 54.5350 -10.1440 128° Southeast 565 650 35,000  Level FlightAware
05:41AM 54.4790 -10.0210 128° Southeast 563 648 35,000  Level FlightAware
05:42AM 54.4220 -9.8950 128° Southeast 562 647 35,000  Level FlightAware
05:42AM 54.3660 -9.7720 128° Southeast 562 647 35,000  Level FlightAware
05:43AM 54.3100 -9.6490 128° Southeast 559 643 35,000  Level FlightAware
05:43AM 54.2550 -9.5270 128° Southeast 555 639 35,000  Level FlightAware
05:44AM 54.1980 -9.4040 128° Southeast 554 638 35,000  Level FlightAware
05:44AM 54.1420 -9.2820 128° Southeast 554 638 35,000  Level FlightAware
05:45AM 54.0860 -9.1630 129° Southeast 553 636 35,000  Level FlightAware
05:46AM 54.0290 -9.0400 128° Southeast 552 635 35,000  Level FlightAware
05:46AM 53.9740 -8.9240 129° Southeast 552 635 35,000  Level FlightAware
05:47AM 53.9170 -8.8030 129° Southeast 551 634 35,000  Level FlightAware
05:47AM 53.8620 -8.6870 129° Southeast 546 628 35,000  Level FlightAware
05:47AM 53.8555 -8.6730 129° Southeast 490 564 35,000  Level FlightAware UK
05:48AM 53.8077 -8.5728 129° Southeast 488 562 35,000  Level FlightAware UK
05:48AM 53.8050 -8.5680 129° Southeast 542 624 35,000  Level FlightAware
05:49AM 53.7510 -8.4550 129° Southeast 540 621 35,000  Level FlightAware
05:49AM 53.6870 -8.3210 129° Southeast 541 623 35,000  Level FlightAware
05:50AM 53.6230 -8.1900 129° Southeast 542 624 35,000  Level FlightAware
05:50AM 53.5750 -8.0910 129° Southeast 542 624 35,000  Level FlightAware
05:50AM 53.5690 -8.0793 129° Southeast 482 555 35,000  Level FlightAware UK
05:51AM 53.5211 -7.9805 129° Southeast 482 555 35,000  Level FlightAware UK
05:51AM 53.5120 -7.9610 129° Southeast 543 625 35,000  Level FlightAware
05:52AM 53.4540 -7.8440 130° Southeast 544 626 35,000  Level FlightAware
05:52AM 53.4070 -7.7470 129° Southeast 550 633 35,000  Level FlightAware
05:53AM 53.3500 -7.6330 130° Southeast 551 634 35,000  Level FlightAware
05:53AM 53.2860 -7.5030 129° Southeast 551 634 35,000  Level FlightAware
05:54AM 53.2295 -7.3908 129° Southeast 482 555 35,000  Level FlightAware UK
05:54AM 53.2270 -7.3860 129° Southeast 552 635 35,000  Level FlightAware
05:54AM 53.1790 -7.2900 130° Southeast 553 636 35,000  Level FlightAware
05:55AM 53.1220 -7.1770 130° Southeast 555 639 35,000  Level FlightAware
05:56AM 53.0650 -7.0650 130° Southeast 554 638 35,000  Level FlightAware
05:56AM 52.9970 -6.9310 130° Southeast 553 636 35,000  Level FlightAware
05:57AM 52.9490 -6.8370 130° Southeast 552 635 35,000  Level FlightAware
05:57AM 52.8833 -6.7092 130° Southeast 484 557 35,000  Level FlightAware UK
05:57AM 52.8850 -6.7120 130° Southeast 551 634 35,000  Level FlightAware
05:58AM 52.8230 -6.5920 131° Southeast 551 634 35,000  Level FlightAware
05:59AM 52.7680 -6.4860 131° Southeast 548 631 35,000  Level FlightAware
05:59AM 52.7120 -6.3790 131° Southeast 547 629 35,000  Level FlightAware
06:00AM 52.6510 -6.2620 131° Southeast 546 628 35,000  Level FlightAware
06:00AM 52.5920 -6.1500 131° Southeast 548 631 35,000  Level FlightAware
06:01AM 52.5410 -6.0530 131° Southeast 547 629 35,000  Level FlightAware
06:01AM 52.5371 -6.0455 131° Southeast 486 559 35,000  Level FlightAware UK
06:01AM 52.4870 -5.9511 131° Southeast 484 557 35,000  Level FlightAware UK
06:02AM 52.4850 -5.9470 131° Southeast 547 629 35,000  Level FlightAware
06:02AM 52.4190 -5.8230 131° Southeast 547 629 35,000  Level FlightAware
06:03AM 52.3660 -5.7240 131° Southeast 547 629 35,000  Level FlightAware
06:03AM 52.3050 -5.6110 131° Southeast 547 629 35,000  Level FlightAware
06:04AM 52.2490 -5.5060 131° Southeast 547 629 35,000  Level FlightAware
06:04AM 52.1920 -5.4010 132° Southeast 549 632 35,000  Level FlightAware
06:05AM 52.1280 -5.2830 131° Southeast 549 632 35,000  Level FlightAware
06:06AM 52.0730 -5.1840 132° Southeast 548 631 35,000  Level FlightAware
06:06AM 52.0150 -5.0710 130° Southeast 542 624 35,000  Level FlightAware
06:07AM 51.9770 -4.9520 117° Southeast 530 610 35,000  Level FlightAware
06:07AM 51.9440 -4.8050 110° East 525 604 35,000  Level FlightAware
06:08AM 51.9180 -4.6823 110° East 492 566 35,000  Level FlightAware UK
06:08AM 51.9190 -4.6850 110° East 521 600 35,000  Level FlightAware
06:08AM 51.8949 -4.5718 110° East 486 559 35,000  Level FlightAware UK
06:09AM 51.8920 -4.5570 110° East 518 596 35,000  Level FlightAware
06:09AM 51.8650 -4.4300 109° East 519 597 35,000  Level FlightAware
06:10AM 51.8350 -4.2930 109° East 506 582 35,000 -540 Level FlightAware
06:10AM 51.8120 -4.1870 109° East 491 565 34,400 -1,500 Descending FlightAware
06:11AM 51.7850 -4.0640 109° East 484 557 33,300 -1,200 Descending FlightAware
06:11AM 51.7580 -3.9420 110° East 487 560 33,000 -300 Descending FlightAware
06:12AM 51.7320 -3.8240 110° East 500 575 33,000  Level FlightAware
06:12AM 51.7296 -3.8126 110° East 466 536 33,000  Level FlightAware UK
06:13AM 51.7057 -3.7057 110° East 472 543 33,000  Level FlightAware UK
06:13AM 51.7030 -3.6950 110° East 511 588 33,000  Level FlightAware
06:13AM 51.6849 -3.6134 110° East 512 589 33,000 -1,260 Level FlightAware ADS-B
06:14AM 51.6530 -3.4752 110° East 508 585 31,700 -2,760 Descending FlightAware ADS-B
06:14AM 51.6180 -3.3240 110° East 520 598 29,300 -2,760 Descending FlightAware
06:15AM 51.5886 -3.1618 106° East 503 579 27,800 -2,280 Descending FlightAware ADS-B
06:16AM 51.5728 -3.0528 103° East 494 568 26,500 -1,860 Descending FlightAware ADS-B
06:16AM 51.5580 -2.9420 102° East 472 543 25,900 -1,380 Descending FlightAware
06:17AM 51.5461 -2.8536 102° East 458 527 25,200 -1,500 Descending FlightAware ADS-B
06:17AM 51.5334 -2.7566 102° East 420 483 24,500 -1,500 Descending FlightAware ADS-B
06:18AM 51.5220 -2.6692 102° East 378 435 23,700 -1,620 Descending FlightAware UK
06:18AM 51.5165 -2.6273 102° East 383 441 23,300 -1,500 Descending FlightAware ADS-B
06:18AM 51.5050 -2.5393 102° East 372 428 22,500 -1,620 Descending FlightAware ADS-B
06:19AM 51.4961 -2.4719 102° East 368 423 21,800 -1,680 Descending FlightAware ADS-B
06:19AM 51.4854 -2.3918 102° East 367 422 21,000 -1,740 Descending FlightAware ADS-B
06:20AM 51.4747 -2.3122 102° East 364 419 20,100 -1,560 Descending FlightAware ADS-B
06:20AM 51.4636 -2.2296 102° East 361 415 19,400 -1,380 Descending FlightAware ADS-B
06:21AM 51.4528 -2.1495 102° East 357 411 18,700 -1,320 Descending FlightAware ADS-B
06:21AM 51.4413 -2.0648 102° East 350 403 18,000 -1,380 Descending FlightAware ADS-B
06:22AM 51.4286 -1.9725 102° East 345 397 17,100 -1,440 Descending FlightAware ADS-B
06:23AM 51.4176 -1.8934 103° East 341 392 16,400 -1,500 Descending FlightAware ADS-B
06:23AM 51.4075 -1.8201 102° East 338 389 15,600 -1,440 Descending FlightAware ADS-B
06:24AM 51.3972 -1.7465 103° East 337 388 15,000 -1,200 Descending FlightAware ADS-B
06:24AM 51.3851 -1.6598 103° East 335 386 14,300 -900 Descending FlightAware ADS-B
06:25AM 51.3742 -1.5826 103° East 333 383 14,000 -300 Descending FlightAware ADS-B
06:25AM 51.3623 -1.5002 103° East 332 382 14,000  Level FlightAware ADS-B
06:26AM 51.3515 -1.4280 103° East 330 380 14,000  Level FlightAware ADS-B
06:26AM 51.3405 -1.3548 104° East 331 381 14,000  Level FlightAware ADS-B
06:27AM 51.3298 -1.2832 103° East 330 380 14,000  Level FlightAware ADS-B
06:27AM 51.3187 -1.2095 104° East 330 380 14,000  Level FlightAware ADS-B
06:28AM 51.3143 -1.1672 99° East 322 371 14,000  Level FlightAware ADS-B
06:28AM 51.3129 -1.1382 94° East 316 364 14,000  Level FlightAware ADS-B
06:28AM 51.3120 -1.0687 91° East 311 358 14,000 -240 Level FlightAware ADS-B
06:29AM 51.3115 -1.0038 91° East 309 356 13,800 -720 Descending FlightAware ADS-B
06:29AM 51.3109 -0.9327 91° East 309 356 13,300 -840 Descending FlightAware ADS-B
06:30AM 51.3102 -0.8640 91° East 310 357 13,000 -840 Descending FlightAware ADS-B
06:30AM 51.3095 -0.7940 91° East 307 353 12,500 -1,200 Descending FlightAware ADS-B
06:31AM 51.3087 -0.7255 91° East 305 351 11,800 -1,500 Descending FlightAware ADS-B
06:31AM 51.3079 -0.6570 91° East 305 351 11,000 -1,380 Descending FlightAware ADS-B
06:32AM 51.3070 -0.5888 91° East 302 348 10,400 -1,020 Descending FlightAware ADS-B
06:32AM 51.3061 -0.5219 91° East 305 351 10,000 -540 Descending FlightAware ADS-B
06:33AM 51.3055 -0.4868 92° East 305 351 10,000 -420 Level FlightAware ADS-B
06:33AM 51.3051 -0.4575 91° East 306 352 9,800 -1,020 Descending FlightAware ADS-B
06:33AM 51.3052 -0.4454 89° East 305 351 9,700 -1,200 Descending FlightAware ADS-B
06:33AM 51.3059 -0.4221 87° East 305 351 9,500 -1,200 Descending FlightAware ADS-B
06:33AM 51.3068 -0.4109 83° East 307 353 9,400 -1,140 Descending FlightAware ADS-B
06:33AM 51.3086 -0.3994 76° East 308 354 9,300 -720 Descending FlightAware ADS-B
06:33AM 51.3101 -0.3930 69° East 308 354 9,300 -900 Level FlightAware ADS-B
06:33AM 51.3124 -0.3853 65° Northeast 307 353 9,200 -900 Descending FlightAware ADS-B
06:33AM 51.3150 -0.3787 58° Northeast 306 352 9,200  Level FlightAware ADS-B
06:33AM 51.3196 -0.3692 52° Northeast 303 349 9,200 -720 Level FlightAware ADS-B
06:34AM 51.3236 -0.3630 44° Northeast 301 346 9,100 -780 Descending FlightAware ADS-B
06:34AM 51.3280 -0.3576 38° Northeast 299 344 9,100 -780 Level FlightAware ADS-B
06:34AM 51.3322 -0.3534 32° Northeast 296 341 9,000 -780 Descending FlightAware ADS-B
06:34AM 51.3373 -0.3496 25° Northeast 293 337 9,000  Level FlightAware ADS-B
06:34AM 51.3419 -0.3471 18° North 289 333 9,000  Level FlightAware ADS-B
06:34AM 51.3468 -0.3454 12° North 284 327 9,000  Level FlightAware ADS-B
06:34AM 51.3515 -0.3447 North 280 322 9,000 -780 Level FlightAware ADS-B
06:34AM 51.3574 -0.3444 North 277 319 8,900 -900 Descending FlightAware ADS-B
06:34AM 51.3774 -0.3465 356° North 274 315 8,700 -960 Descending FlightAware ADS-B
06:34AM 51.3905 -0.3481 356° North 274 315 8,500 -1,140 Descending FlightAware ADS-B
06:35AM 51.3963 -0.3481 360° North 275 316 8,400 -1,500 Descending FlightAware ADS-B
06:35AM 51.4009 -0.3472 North 275 316 8,300 -1,200 Descending FlightAware ADS-B
06:35AM 51.4089 -0.3436 16° North 274 315 8,200 -780 Descending FlightAware ADS-B
06:35AM 51.4192 -0.3343 29° Northeast 272 313 8,100 -1,140 Descending FlightAware ADS-B
06:35AM 51.4257 -0.3240 45° Northeast 268 308 7,900 -1,140 Descending FlightAware ADS-B
06:35AM 51.4312 -0.3095 59° Northeast 264 304 7,800 -1,200 Descending FlightAware ADS-B
06:35AM 51.4333 -0.2981 74° East 260 299 7,600 -1,440 Descending FlightAware ADS-B
06:35AM 51.4339 -0.2851 86° East 256 295 7,500 -600 Descending FlightAware ADS-B
06:35AM 51.4333 -0.2769 97° East 254 292 7,500 -780 Level FlightAware ADS-B
06:35AM 51.4323 -0.2705 104° East 250 288 7,400 -1,740 Descending FlightAware ADS-B
06:36AM 51.4311 -0.2654 111° Southeast 248 285 7,300 -900 Descending FlightAware ADS-B
06:36AM 51.4289 -0.2590 119° Southeast 246 283 7,300 -900 Level FlightAware ADS-B
06:36AM 51.4268 -0.2539 123° Southeast 243 280 7,200 -1,380 Descending FlightAware ADS-B
06:36AM 51.4223 -0.2455 131° Southeast 240 276 7,100 -480 Descending FlightAware ADS-B
06:36AM 51.4171 -0.2367 134° Southeast 241 277 7,100 -300 Level FlightAware ADS-B
06:36AM 51.4069 -0.2201 135° Southeast 242 278 7,000 -360 Descending FlightAware ADS-B
06:36AM 51.4030 -0.2132 132° Southeast 242 278 7,000  Level FlightAware ADS-B
06:36AM 51.3999 -0.2062 126° Southeast 244 281 7,000  Level FlightAware ADS-B
06:36AM 51.3973 -0.1986 119° Southeast 245 282 7,000  Level FlightAware ADS-B
06:36AM 51.3959 -0.1924 110° East 247 284 7,000  Level FlightAware ADS-B
06:36AM 51.3947 -0.1834 102° East 248 285 7,000  Level FlightAware ADS-B
06:37AM 51.3943 -0.1739 94° East 251 289 7,000  Level FlightAware ADS-B
06:37AM 51.3942 -0.1630 91° East 254 292 7,000 -600 Level FlightAware ADS-B
06:37AM 51.3946 -0.1348 89° East 255 293 6,800 -900 Descending FlightAware ADS-B
06:37AM 51.3950 -0.1092 89° East 255 293 6,600 -1,080 Descending FlightAware ADS-B
06:37AM 51.3953 -0.0802 89° East 255 293 6,300 -960 Descending FlightAware ADS-B
06:38AM 51.3957 -0.0497 89° East 255 293 6,100 -960 Descending FlightAware ADS-B
06:38AM 51.3961 -0.0188 89° East 253 291 5,800 -1,140 Descending FlightAware ADS-B
06:38AM 51.3970 0.0099 87° East 248 285 5,500 -1,080 Descending FlightAware ADS-B
06:38AM 51.3987 0.0221 77° East 249 287 5,400 -960 Descending FlightAware ADS-B
06:38AM 51.4019 0.0330 65° Northeast 246 283 5,300 -840 Descending FlightAware ADS-B
06:39AM 51.4080 0.0448 50° Northeast 240 276 5,200 -1,200 Descending FlightAware ADS-B
06:39AM 51.4192 0.0552 30° Northeast 234 269 4,900 -1,380 Descending FlightAware ADS-B
06:39AM 51.4301 0.0570 North 222 255 4,700 -1,380 Descending FlightAware ADS-B
06:39AM 51.4375 0.0540 346° North 213 245 4,500 -1,080 Descending FlightAware ADS-B
06:39AM 51.4477 0.0404 320° Northwest 196 226 4,300 -720 Descending FlightAware ADS-B
06:39AM 51.4530 0.0283 305° West 191 220 4,200 -720 Descending FlightAware ADS-B
06:40AM 51.4599 0.0097 301° West 186 214 4,000 -600 Descending FlightAware ADS-B
06:40AM 51.4644 -0.0121 288° West 182 209 3,900 -240 Descending FlightAware ADS-B
06:40AM 51.4651 -0.0305 273° West 180 207 3,900  Level FlightAware ADS-B
06:41AM 51.4653 -0.0521 271° West 183 211 3,900  Level FlightAware ADS-B
06:41AM 51.4654 -0.0701 271° West 180 207 3,900  Level FlightAware ADS-B
06:41AM 51.4655 -0.0908 270° West 178 205 3,900  Level FlightAware ADS-B
06:41AM 51.4655 -0.1124 270° West 176 203 3,900 -540 Level FlightAware ADS-B
06:42AM 51.4654 -0.1364 270° West 184 212 3,600 -1,080 Descending FlightAware ADS-B
06:42AM 51.4655 -0.1588 270° West 186 214 3,300 -960 Descending FlightAware ADS-B
06:42AM 51.4654 -0.1806 270° West 186 214 3,100 -900 Descending FlightAware ADS-B
06:42AM 51.4654 -0.2060 270° West 183 211 2,800 -1,080 Descending FlightAware ADS-B
06:43AM 51.4654 -0.2441 270° West 183 211 2,300 -1,080 Descending FlightAware ADS-B
06:43AM 51.4650 -0.2900 269° West 176 203 1,700 -900 Descending FlightAware
06:44AM 51.4650 -0.3140 270° West 169 194 1,500 -840 Descending FlightAware
06:44AM 51.4650 -0.3510 270° West 160 184 1,000 -960 Descending FlightAware
06:45AM 51.4650 -0.3760 270° West 145 167 700 -840 Descending FlightAware
06:45AM 51.4650 -0.3990 270° West 147 169 400 -720 Descending FlightAware
06:45AM 51.4650 -0.4210 270° West 144 166 200 -600 Descending FlightAware
06:46AM 51.4650 -0.4460 270° West 140 161 -480 Descending FlightAware
06:46AM 51.4650 -0.4680 270° West 140 161  Level FlightAware